Terminal Aerodrome Forecast
Issued by NWS King Salmon, AK

Home | Current Version | Previous Version | Text Only | Print | Product List | Glossary On
Versions: 1 2 3 4 5 6 7 8 9 10 11 12 13 14
000
FTAK31 PANC 202339
TAFAKN
TAF
PAKN 202339Z 2100/2124 05012G22KT P6SM SCT050 BKN080
     FM210400 04008KT P6SM SCT060 BKN100
     FM210900 02005KT P6SM VCSH SCT040 OVC060
     FM211900 01008G15KT P6SM SCT060 BKN100=

USA.gov is the U.S. government's official web portal to all federal, state and local government web resources and services.